sensor_id;sensor_type;location;lat;lon;timestamp;pressure;altitude;pressure_sealevel;temperature;humidity
22830;BME280;11581;51.250;6.778;2023-02-12T00:01:15;103399.31;;;12.14;63.03
22830;BME280;11581;51.250;6.778;2023-02-12T00:03:42;103401.22;;;12.12;63.10
22830;BME280;11581;51.250;6.778;2023-02-12T00:06:10;103402.19;;;12.11;63.31
22830;BME280;11581;51.250;6.778;2023-02-12T00:08:38;103399.50;;;12.11;63.15
22830;BME280;11581;51.250;6.778;2023-02-12T00:11:09;103392.41;;;12.10;63.19
22830;BME280;11581;51.250;6.778;2023-02-12T00:13:36;103410.22;;;12.11;63.28
22830;BME280;11581;51.250;6.778;2023-02-12T00:16:06;103294.69;;;11.47;63.25
22830;BME280;11581;51.250;6.778;2023-02-12T00:18:33;103327.63;;;11.63;63.32
22830;BME280;11581;51.250;6.778;2023-02-12T00:21:00;103287.84;;;11.43;63.12
22830;BME280;11581;51.250;6.778;2023-02-12T00:23:30;103403.03;;;12.11;63.28
22830;BME280;11581;51.250;6.778;2023-02-12T00:25:57;103373.50;;;11.99;63.21
22830;BME280;11581;51.250;6.778;2023-02-12T00:28:24;103396.75;;;12.12;63.15
22830;BME280;11581;51.250;6.778;2023-02-12T00:30:51;103397.56;;;12.13;63.17
22830;BME280;11581;51.250;6.778;2023-02-12T00:33:18;103390.50;;;12.12;63.15
22830;BME280;11581;51.250;6.778;2023-02-12T00:35:54;103373.41;;;12.00;63.48
22830;BME280;11581;51.250;6.778;2023-02-12T00:38:22;103372.72;;;11.97;63.29
22830;BME280;11581;51.250;6.778;2023-02-12T00:40:51;103372.72;;;11.83;63.11
22830;BME280;11581;51.250;6.778;2023-02-12T00:43:18;103402.28;;;12.09;63.07
22830;BME280;11581;51.250;6.778;2023-02-12T00:45:45;103352.47;;;11.79;62.95
22830;BME280;11581;51.250;6.778;2023-02-12T00:48:12;103385.25;;;11.96;63.04
22830;BME280;11581;51.250;6.778;2023-02-12T00:50:43;103350.25;;;11.71;63.03
22830;BME280;11581;51.250;6.778;2023-02-12T00:53:10;103397.19;;;12.05;63.19
22830;BME280;11581;51.250;6.778;2023-02-12T00:55:37;103397.28;;;12.03;63.12
22830;BME280;11581;51.250;6.778;2023-02-12T00:58:06;103396.41;;;12.03;63.35
22830;BME280;11581;51.250;6.778;2023-02-12T01:00:33;103377.31;;;11.95;63.20
22830;BME280;11581;51.250;6.778;2023-02-12T01:03:03;103377.50;;;11.92;63.50
22830;BME280;11581;51.250;6.778;2023-02-12T01:05:31;103394.63;;;12.03;63.27
22830;BME280;11581;51.250;6.778;2023-02-12T01:07:58;103394.72;;;12.02;63.17
22830;BME280;11581;51.250;6.778;2023-02-12T01:10:26;103367.84;;;11.89;63.34
22830;BME280;11581;51.250;6.778;2023-02-12T01:12:53;103392.03;;;12.02;63.34
22830;BME280;11581;51.250;6.778;2023-02-12T01:15:22;103403.59;;;12.02;63.42
22830;BME280;11581;51.250;6.778;2023-02-12T01:17:50;103374.06;;;11.90;63.49
22830;BME280;11581;51.250;6.778;2023-02-12T01:20:19;103376.44;;;11.94;63.20
22830;BME280;11581;51.250;6.778;2023-02-12T01:22:48;103286.78;;;11.45;63.17
22830;BME280;11581;51.250;6.778;2023-02-12T01:25:17;103369.56;;;11.90;63.22
22830;BME280;11581;51.250;6.778;2023-02-12T01:27:44;103384.75;;;12.04;63.24
22830;BME280;11581;51.250;6.778;2023-02-12T01:30:13;103369.31;;;11.95;63.25
22830;BME280;11581;51.250;6.778;2023-02-12T01:32:41;103380.38;;;12.03;63.29
22830;BME280;11581;51.250;6.778;2023-02-12T01:35:10;103388.31;;;12.04;63.21
22830;BME280;11581;51.250;6.778;2023-02-12T01:37:39;103279.69;;;11.44;63.11
22830;BME280;11581;51.250;6.778;2023-02-12T01:40:08;103371.00;;;11.96;63.18
22830;BME280;11581;51.250;6.778;2023-02-12T01:42:35;103375.03;;;12.03;63.28
22830;BME280;11581;51.250;6.778;2023-02-12T01:45:37;103376.97;;;12.01;63.85
22830;BME280;11581;51.250;6.778;2023-02-12T01:48:11;103378.66;;;12.02;63.30
22830;BME280;11581;51.250;6.778;2023-02-12T01:50:40;103377.78;;;12.01;63.37
22830;BME280;11581;51.250;6.778;2023-02-12T01:53:08;103352.28;;;11.82;63.24
22830;BME280;11581;51.250;6.778;2023-02-12T01:55:38;103376.97;;;12.01;63.15
22830;BME280;11581;51.250;6.778;2023-02-12T01:58:06;103369.84;;;12.00;63.26
22830;BME280;11581;51.250;6.778;2023-02-12T02:00:34;103356.56;;;11.84;63.20
22830;BME280;11581;51.250;6.778;2023-02-12T02:03:01;103376.25;;;11.97;63.26
22830;BME280;11581;51.250;6.778;2023-02-12T02:05:37;103322.09;;;11.66;63.60
22830;BME280;11581;51.250;6.778;2023-02-12T02:08:07;103373.69;;;11.96;63.22
22830;BME280;11581;51.250;6.778;2023-02-12T02:10:35;103368.53;;;11.93;63.22
22830;BME280;11581;51.250;6.778;2023-02-12T02:13:02;103373.09;;;11.91;63.24
22830;BME280;11581;51.250;6.778;2023-02-12T02:15:47;103367.75;;;11.91;63.72
22830;BME280;11581;51.250;6.778;2023-02-12T02:18:20;103370.50;;;11.89;63.41
22830;BME280;11581;51.250;6.778;2023-02-12T02:23:48;103356.06;;;11.78;63.53
22830;BME280;11581;51.250;6.778;2023-02-12T02:26:53;103351.69;;;11.77;63.75
22830;BME280;11581;51.250;6.778;2023-02-12T02:32:28;103320.09;;;11.54;63.51
22830;BME280;11581;51.250;6.778;2023-02-12T02:34:59;103288.19;;;11.37;63.48
22830;BME280;11581;51.250;6.778;2023-02-12T02:37:31;103363.91;;;11.81;63.43
22830;BME280;11581;51.250;6.778;2023-02-12T02:40:06;103362.28;;;11.78;63.81
22830;BME280;11581;51.250;6.778;2023-02-12T02:42:39;103365.06;;;11.77;63.62
22830;BME280;11581;51.250;6.778;2023-02-12T02:45:15;103375.84;;;11.75;63.76
22830;BME280;11581;51.250;6.778;2023-02-12T02:47:48;103348.81;;;11.66;63.94
22830;BME280;11581;51.250;6.778;2023-02-12T02:50:21;103364.59;;;11.70;63.85
22830;BME280;11581;51.250;6.778;2023-02-12T02:52:51;103358.38;;;11.70;63.79
22830;BME280;11581;51.250;6.778;2023-02-12T02:55:21;103360.16;;;11.69;63.81
22830;BME280;11581;51.250;6.778;2023-02-12T02:57:53;103348.19;;;11.61;64.04
22830;BME280;11581;51.250;6.778;2023-02-12T03:00:25;103350.84;;;11.61;63.84
22830;BME280;11581;51.250;6.778;2023-02-12T03:02:58;103365.59;;;11.68;63.97
22830;BME280;11581;51.250;6.778;2023-02-12T03:05:30;103362.94;;;11.68;63.89
22830;BME280;11581;51.250;6.778;2023-02-12T03:08:04;103347.41;;;11.59;63.98
22830;BME280;11581;51.250;6.778;2023-02-12T03:10:37;103368.28;;;11.68;64.01
22830;BME280;11581;51.250;6.778;2023-02-12T03:13:09;103363.81;;;11.68;63.93
22830;BME280;11581;51.250;6.778;2023-02-12T03:15:40;103365.59;;;11.68;63.94
22830;BME280;11581;51.250;6.778;2023-02-12T03:18:13;103340.34;;;11.58;64.04
22830;BME280;11581;51.250;6.778;2023-02-12T03:20:44;103368.09;;;11.71;63.84
22830;BME280;11581;51.250;6.778;2023-02-12T03:23:16;103347.41;;;11.59;64.06
22830;BME280;11581;51.250;6.778;2023-02-12T03:25:48;103359.16;;;11.72;63.92
22830;BME280;11581;51.250;6.778;2023-02-12T03:28:26;103355.50;;;11.73;64.04
22830;BME280;11581;51.250;6.778;2023-02-12T03:31:02;103339.28;;;11.60;64.06
22830;BME280;11581;51.250;6.778;2023-02-12T03:33:41;103352.22;;;11.68;64.14
22830;BME280;11581;51.250;6.778;2023-02-12T03:36:22;103359.16;;;11.72;64.15
22830;BME280;11581;51.250;6.778;2023-02-12T03:38:53;103297.16;;;11.35;63.72
22830;BME280;11581;51.250;6.778;2023-02-12T03:41:26;103357.22;;;11.74;63.81
22830;BME280;11581;51.250;6.778;2023-02-12T03:44:04;103297.84;;;11.39;63.74
22830;BME280;11581;51.250;6.778;2023-02-12T03:46:39;103354.81;;;11.69;63.67
22830;BME280;11581;51.250;6.778;2023-02-12T03:49:11;103362.00;;;11.69;63.76
22830;BME280;11581;51.250;6.778;2023-02-12T03:51:43;103350.84;;;11.61;63.23
22830;BME280;11581;51.250;6.778;2023-02-12T03:54:13;103360.63;;;11.62;63.29
22830;BME280;11581;51.250;6.778;2023-02-12T03:56:45;103352.00;;;11.57;63.58
22830;BME280;11581;51.250;6.778;2023-02-12T03:59:17;103345.41;;;11.48;63.49
22830;BME280;11581;51.250;6.778;2023-02-12T04:01:46;103257.81;;;10.94;63.71
22830;BME280;11581;51.250;6.778;2023-02-12T04:04:16;103361.16;;;11.53;63.98
22830;BME280;11581;51.250;6.778;2023-02-12T04:06:44;103344.69;;;11.45;63.80
22830;BME280;11581;51.250;6.778;2023-02-12T04:09:12;103376.25;;;11.54;63.85
22830;BME280;11581;51.250;6.778;2023-02-12T04:11:53;103352.72;;;11.45;64.18
22830;BME280;11581;51.250;6.778;2023-02-12T04:14:28;103365.38;;;11.57;64.25
22830;BME280;11581;51.250;6.778;2023-02-12T04:17:02;103369.75;;;11.58;64.13
22830;BME280;11581;51.250;6.778;2023-02-12T04:19:39;103368.69;;;11.60;64.49
22830;BME280;11581;51.250;6.778;2023-02-12T04:22:20;103367.44;;;11.52;64.58
22830;BME280;11581;51.250;6.778;2023-02-12T04:24:58;103275.38;;;10.98;64.47
22830;BME280;11581;51.250;6.778;2023-02-12T04:27:35;103375.78;;;11.61;64.67
22830;BME280;11581;51.250;6.778;2023-02-12T04:30:06;103310.16;;;11.12;64.23
22830;BME280;11581;51.250;6.778;2023-02-12T04:32:46;103382.94;;;11.61;64.40
22830;BME280;11581;51.250;6.778;2023-02-12T04:35:19;103361.53;;;11.47;64.69
22830;BME280;11581;51.250;6.778;2023-02-12T04:37:52;103391.78;;;11.63;64.46
22830;BME280;11581;51.250;6.778;2023-02-12T04:40:21;103395.19;;;11.65;64.20
22830;BME280;11581;51.250;6.778;2023-02-12T04:42:50;103399.63;;;11.66;64.06
22830;BME280;11581;51.250;6.778;2023-02-12T04:45:22;103397.78;;;11.66;64.42
22830;BME280;11581;51.250;6.778;2023-02-12T04:47:50;103379.88;;;11.53;63.96
22830;BME280;11581;51.250;6.778;2023-02-12T04:50:20;103406.84;;;11.64;64.21
22830;BME280;11581;51.250;6.778;2023-02-12T04:52:47;103292.25;;;10.98;64.16
22830;BME280;11581;51.250;6.778;2023-02-12T04:55:15;103398.81;;;11.64;64.07
22830;BME280;11581;51.250;6.778;2023-02-12T04:57:42;103400.72;;;11.62;64.13
22830;BME280;11581;51.250;6.778;2023-02-12T05:00:13;103407.81;;;11.63;64.37
22830;BME280;11581;51.250;6.778;2023-02-12T05:02:40;103409.59;;;11.62;64.29
22830;BME280;11581;51.250;6.778;2023-02-12T05:05:07;103387.81;;;11.54;64.22
22830;BME280;11581;51.250;6.778;2023-02-12T05:07:36;103407.88;;;11.61;64.30
22830;BME280;11581;51.250;6.778;2023-02-12T05:10:03;103402.59;;;11.60;64.24
22830;BME280;11581;51.250;6.778;2023-02-12T05:12:30;103397.44;;;11.57;64.34
22830;BME280;11581;51.250;6.778;2023-02-12T05:14:57;103376.19;;;11.40;64.34
22830;BME280;11581;51.250;6.778;2023-02-12T05:17:24;103399.50;;;11.52;64.54
22830;BME280;11581;51.250;6.778;2023-02-12T05:19:51;103405.03;;;11.49;64.48
22830;BME280;11581;51.250;6.778;2023-02-12T05:22:18;103377.66;;;11.29;64.52
22830;BME280;11581;51.250;6.778;2023-02-12T05:24:46;103410.75;;;11.43;64.91
22830;BME280;11581;51.250;6.778;2023-02-12T05:27:13;103412.56;;;11.42;64.73
22830;BME280;11581;51.250;6.778;2023-02-12T05:29:40;103414.53;;;11.38;64.71
22830;BME280;11581;51.250;6.778;2023-02-12T05:32:07;103418.34;;;11.34;64.80
22830;BME280;11581;51.250;6.778;2023-02-12T05:34:35;103383.91;;;11.14;64.77
22830;BME280;11581;51.250;6.778;2023-02-12T05:37:02;103385.03;;;11.10;64.86
22830;BME280;11581;51.250;6.778;2023-02-12T05:39:29;103410.28;;;11.20;64.84
22830;BME280;11581;51.250;6.778;2023-02-12T05:41:57;103408.03;;;11.13;65.26
22830;BME280;11581;51.250;6.778;2023-02-12T05:44:24;103422.84;;;11.18;65.31
22830;BME280;11581;51.250;6.778;2023-02-12T05:46:53;103397.88;;;11.04;65.54
22830;BME280;11581;51.250;6.778;2023-02-12T05:49:20;103425.59;;;11.17;65.59
22830;BME280;11581;51.250;6.778;2023-02-12T05:51:48;103409.50;;;11.03;65.56
22830;BME280;11581;51.250;6.778;2023-02-12T05:54:15;103403.31;;;11.02;65.53
22830;BME280;11581;51.250;6.778;2023-02-12T05:56:43;103420.88;;;11.06;65.65
22830;BME280;11581;51.250;6.778;2023-02-12T05:59:14;103431.22;;;11.12;65.93
22830;BME280;11581;51.250;6.778;2023-02-12T06:01:44;103349.47;;;10.63;65.83
22830;BME280;11581;51.250;6.778;2023-02-12T06:04:15;103432.16;;;11.11;65.85
22830;BME280;11581;51.250;6.778;2023-02-12T06:06:43;103430.47;;;11.10;65.86
22830;BME280;11581;51.250;6.778;2023-02-12T06:09:11;103383.91;;;10.83;65.95
22830;BME280;11581;51.250;6.778;2023-02-12T06:11:39;103433.88;;;11.12;66.07
22830;BME280;11581;51.250;6.778;2023-02-12T06:14:07;103425.78;;;11.14;66.09
22830;BME280;11581;51.250;6.778;2023-02-12T06:16:36;103426.47;;;11.17;66.14
22830;BME280;11581;51.250;6.778;2023-02-12T06:19:04;103435.25;;;11.19;65.98
22830;BME280;11581;51.250;6.778;2023-02-12T06:21:32;103423.03;;;11.15;65.90
22830;BME280;11581;51.250;6.778;2023-02-12T06:23:59;103351.22;;;10.80;65.72
22830;BME280;11581;51.250;6.778;2023-02-12T06:26:26;103430.53;;;11.24;65.79
22830;BME280;11581;51.250;6.778;2023-02-12T06:28:53;103351.72;;;10.71;65.60
22830;BME280;11581;51.250;6.778;2023-02-12T06:31:22;103433.28;;;11.23;65.81
22830;BME280;11581;51.250;6.778;2023-02-12T06:33:52;103426.97;;;11.24;66.03
22830;BME280;11581;51.250;6.778;2023-02-12T06:36:19;103409.09;;;11.10;65.77
22830;BME280;11581;51.250;6.778;2023-02-12T06:38:47;103430.53;;;11.24;65.76
22830;BME280;11581;51.250;6.778;2023-02-12T06:41:16;103433.19;;;11.24;65.85
22830;BME280;11581;51.250;6.778;2023-02-12T06:43:43;103418.72;;;11.13;65.81
22830;BME280;11581;51.250;6.778;2023-02-12T06:46:10;103442.91;;;11.25;65.74
22830;BME280;11581;51.250;6.778;2023-02-12T06:48:37;103437.66;;;11.24;65.58
22830;BME280;11581;51.250;6.778;2023-02-12T06:51:07;103444.94;;;11.22;65.94
22830;BME280;11581;51.250;6.778;2023-02-12T06:53:34;103453.88;;;11.21;65.88
22830;BME280;11581;51.250;6.778;2023-02-12T06:56:02;103444.94;;;11.22;65.94
22830;BME280;11581;51.250;6.778;2023-02-12T06:58:29;103451.03;;;11.24;65.78
22830;BME280;11581;51.250;6.778;2023-02-12T07:00:56;103459.91;;;11.24;65.73
22830;BME280;11581;51.250;6.778;2023-02-12T07:03:25;103432.34;;;11.08;65.61
22830;BME280;11581;51.250;6.778;2023-02-12T07:05:51;103456.63;;;11.19;65.64
22830;BME280;11581;51.250;6.778;2023-02-12T07:08:20;103460.34;;;11.17;65.90
22830;BME280;11581;51.250;6.778;2023-02-12T07:10:48;103449.31;;;11.07;65.85
22830;BME280;11581;51.250;6.778;2023-02-12T07:13:16;103433.72;;;11.00;65.96
22830;BME280;11581;51.250;6.778;2023-02-12T07:15:43;103467.69;;;11.13;66.10
22830;BME280;11581;51.250;6.778;2023-02-12T07:18:09;103463.19;;;11.14;66.02
22830;BME280;11581;51.250;6.778;2023-02-12T07:20:36;103450.59;;;11.00;66.17
22830;BME280;11581;51.250;6.778;2023-02-12T07:23:03;103448.72;;;11.02;66.18
22830;BME280;11581;51.250;6.778;2023-02-12T07:25:36;103469.31;;;11.16;66.54
22830;BME280;11581;51.250;6.778;2023-02-12T07:28:03;103442.50;;;11.02;66.06
22830;BME280;11581;51.250;6.778;2023-02-12T07:30:30;103466.56;;;11.17;66.17
22830;BME280;11581;51.250;6.778;2023-02-12T07:32:57;103475.41;;;11.18;66.19
22830;BME280;11581;51.250;6.778;2023-02-12T07:35:24;103468.28;;;11.18;66.20
22830;BME280;11581;51.250;6.778;2023-02-12T07:37:51;103482.50;;;11.19;66.33
22830;BME280;11581;51.250;6.778;2023-02-12T07:40:18;103431.31;;;10.95;66.21
22830;BME280;11581;51.250;6.778;2023-02-12T07:42:47;103477.81;;;11.22;66.47
22830;BME280;11581;51.250;6.778;2023-02-12T07:45:19;103357.25;;;10.52;66.29
22830;BME280;11581;51.250;6.778;2023-02-12T07:47:46;103463.72;;;11.20;66.34
22830;BME280;11581;51.250;6.778;2023-02-12T07:50:14;103479.03;;;11.32;66.31
22830;BME280;11581;51.250;6.778;2023-02-12T07:52:41;103477.94;;;11.37;66.36
22830;BME280;11581;51.250;6.778;2023-02-12T07:55:12;103459.56;;;11.30;66.37
22830;BME280;11581;51.250;6.778;2023-02-12T07:57:38;103478.34;;;11.45;66.19
22830;BME280;11581;51.250;6.778;2023-02-12T08:00:09;103443.72;;;11.27;66.26
22830;BME280;11581;51.250;6.778;2023-02-12T08:02:39;103489.38;;;11.54;65.92
22830;BME280;11581;51.250;6.778;2023-02-12T08:05:07;103487.38;;;11.58;65.89
22830;BME280;11581;51.250;6.778;2023-02-12T08:07:34;103495.22;;;11.61;65.82
22830;BME280;11581;51.250;6.778;2023-02-12T08:10:02;103469.19;;;11.49;65.91
22830;BME280;11581;51.250;6.778;2023-02-12T08:12:29;103493.00;;;11.69;66.01
22830;BME280;11581;51.250;6.778;2023-02-12T08:14:58;103490.91;;;11.74;65.80
22830;BME280;11581;51.250;6.778;2023-02-12T08:17:26;103498.66;;;11.78;65.74
22830;BME280;11581;51.250;6.778;2023-02-12T08:19:54;103469.78;;;11.69;65.75
22830;BME280;11581;51.250;6.778;2023-02-12T08:22:20;103500.72;;;11.89;65.54
22830;BME280;11581;51.250;6.778;2023-02-12T08:24:47;103496.91;;;11.93;65.44
22830;BME280;11581;51.250;6.778;2023-02-12T08:27:14;103337.22;;;11.06;65.17
22830;BME280;11581;51.250;6.778;2023-02-12T08:29:43;103503.44;;;12.03;65.08
22830;BME280;11581;51.250;6.778;2023-02-12T08:32:10;103482.56;;;11.94;64.85
22830;BME280;11581;51.250;6.778;2023-02-12T08:34:40;103508.41;;;12.09;64.72
22830;BME280;11581;51.250;6.778;2023-02-12T08:37:07;103513.69;;;12.10;64.86
22830;BME280;11581;51.250;6.778;2023-02-12T08:39:34;103465.69;;;11.93;64.93
22830;BME280;11581;51.250;6.778;2023-02-12T08:42:02;103514.06;;;12.18;65.14
22830;BME280;11581;51.250;6.778;2023-02-12T08:44:29;103502.25;;;12.22;64.94
22830;BME280;11581;51.250;6.778;2023-02-12T08:46:56;103512.28;;;12.33;64.75
22830;BME280;11581;51.250;6.778;2023-02-12T08:49:25;103503.78;;;12.40;64.58
22830;BME280;11581;51.250;6.778;2023-02-12T08:51:54;103493.78;;;12.44;64.41
22830;BME280;11581;51.250;6.778;2023-02-12T08:54:23;103488.03;;;12.50;64.20
22830;BME280;11581;51.250;6.778;2023-02-12T08:56:53;103501.25;;;12.67;64.22
22830;BME280;11581;51.250;6.778;2023-02-12T08:59:23;103471.13;;;12.49;64.20
22830;BME280;11581;51.250;6.778;2023-02-12T09:01:51;103493.28;;;12.79;63.93
22830;BME280;11581;51.250;6.778;2023-02-12T09:04:21;103508.16;;;12.99;63.64
22830;BME280;11581;51.250;6.778;2023-02-12T09:06:49;103507.38;;;13.11;63.57
22830;BME280;11581;51.250;6.778;2023-02-12T09:09:18;103484.19;;;13.10;63.22
22830;BME280;11581;51.250;6.778;2023-02-12T09:11:46;103506.66;;;13.35;63.14
22830;BME280;11581;51.250;6.778;2023-02-12T09:14:17;103510.34;;;13.47;62.47
22830;BME280;11581;51.250;6.778;2023-02-12T09:16:48;103513.75;;;13.63;62.33
22830;BME280;11581;51.250;6.778;2023-02-12T09:19:16;103502.97;;;13.77;62.07
22830;BME280;11581;51.250;6.778;2023-02-12T09:21:43;103514.59;;;13.90;61.43
22830;BME280;11581;51.250;6.778;2023-02-12T09:24:10;103493.69;;;13.95;60.85
22830;BME280;11581;51.250;6.778;2023-02-12T09:26:38;103518.22;;;14.16;59.44
22830;BME280;11581;51.250;6.778;2023-02-12T09:29:06;103436.88;;;13.76;59.50
22830;BME280;11581;51.250;6.778;2023-02-12T09:31:33;103516.84;;;14.35;59.17
22830;BME280;11581;51.250;6.778;2023-02-12T09:34:01;103516.22;;;14.44;58.94
22830;BME280;11581;51.250;6.778;2023-02-12T09:36:30;103489.06;;;14.36;59.20
22830;BME280;11581;51.250;6.778;2023-02-12T09:38:58;103513.00;;;14.64;58.96
22830;BME280;11581;51.250;6.778;2023-02-12T09:42:03;103505.50;;;14.69;57.22
22830;BME280;11581;51.250;6.778;2023-02-12T09:44:37;103509.75;;;14.84;57.04
22830;BME280;11581;51.250;6.778;2023-02-12T09:47:12;103480.34;;;14.70;57.00
22830;BME280;11581;51.250;6.778;2023-02-12T09:49:51;103447.47;;;14.54;56.72
22830;BME280;11581;51.250;6.778;2023-02-12T09:52:25;103519.63;;;14.96;57.00
22830;BME280;11581;51.250;6.778;2023-02-12T09:54:54;103526.72;;;14.97;57.56
22830;BME280;11581;51.250;6.778;2023-02-12T09:57:27;103513.84;;;14.90;56.81
22830;BME280;11581;51.250;6.778;2023-02-12T09:59:58;103478.41;;;14.72;56.97
22830;BME280;11581;51.250;6.778;2023-02-12T10:02:26;103530.38;;;14.96;57.20
22830;BME280;11581;51.250;6.778;2023-02-12T10:04:53;103526.97;;;14.94;57.02
22830;BME280;11581;51.250;6.778;2023-02-12T10:07:36;103528.91;;;14.92;56.45
22830;BME280;11581;51.250;6.778;2023-02-12T10:10:20;103509.75;;;14.84;56.07
22830;BME280;11581;51.250;6.778;2023-02-12T10:12:56;103477.34;;;14.62;55.82
22830;BME280;11581;51.250;6.778;2023-02-12T10:15:33;103459.94;;;14.55;55.67
22830;BME280;11581;51.250;6.778;2023-02-12T10:18:14;103533.84;;;14.98;55.48
22830;BME280;11581;51.250;6.778;2023-02-12T10:20:52;103526.63;;;14.99;55.28
22830;BME280;11581;51.250;6.778;2023-02-12T10:23:37;103522.13;;;14.99;54.66
22830;BME280;11581;51.250;6.778;2023-02-12T10:26:14;103523.94;;;14.99;54.80
22830;BME280;11581;51.250;6.778;2023-02-12T10:28:44;103498.28;;;14.82;55.12
22830;BME280;11581;51.250;6.778;2023-02-12T10:31:16;103528.69;;;14.95;54.44
22830;BME280;11581;51.250;6.778;2023-02-12T10:33:46;103521.34;;;14.97;55.32
22830;BME280;11581;51.250;6.778;2023-02-12T10:36:22;103541.78;;;15.00;55.08
22830;BME280;11581;51.250;6.778;2023-02-12T10:38:57;103529.75;;;15.05;55.56
22830;BME280;11581;51.250;6.778;2023-02-12T10:41:28;103506.41;;;15.06;55.71
22830;BME280;11581;51.250;6.778;2023-02-12T10:43:58;103526.47;;;15.25;55.35
22830;BME280;11581;51.250;6.778;2023-02-12T10:46:29;103497.53;;;15.16;54.42
22830;BME280;11581;51.250;6.778;2023-02-12T10:48:59;103495.06;;;15.26;54.11
22830;BME280;11581;51.250;6.778;2023-02-12T10:51:39;103518.25;;;15.52;52.83
22830;BME280;11581;51.250;6.778;2023-02-12T10:54:38;103517.44;;;15.63;53.00
22830;BME280;11581;51.250;6.778;2023-02-12T10:57:12;103496.88;;;15.61;53.07
22830;BME280;11581;51.250;6.778;2023-02-12T10:59:42;103528.44;;;15.83;53.79
22830;BME280;11581;51.250;6.778;2023-02-12T11:02:28;103498.97;;;15.82;52.06
22830;BME280;11581;51.250;6.778;2023-02-12T11:04:57;103461.75;;;15.76;53.46
22830;BME280;11581;51.250;6.778;2023-02-12T11:07:26;103542.38;;;16.12;53.53
22830;BME280;11581;51.250;6.778;2023-02-12T11:09:55;103404.41;;;15.51;52.29
22830;BME280;11581;51.250;6.778;2023-02-12T11:12:27;103475.31;;;16.09;51.14
22830;BME280;11581;51.250;6.778;2023-02-12T11:14:59;103497.38;;;16.25;51.32
22830;BME280;11581;51.250;6.778;2023-02-12T11:17:32;103503.00;;;16.33;50.79
22830;BME280;11581;51.250;6.778;2023-02-12T11:20:03;103499.38;;;16.34;51.26
22830;BME280;11581;51.250;6.778;2023-02-12T11:22:35;103501.31;;;16.32;51.93
22830;BME280;11581;51.250;6.778;2023-02-12T11:25:14;103482.44;;;16.21;50.60
22830;BME280;11581;51.250;6.778;2023-02-12T11:27:43;103490.28;;;16.24;51.62
22830;BME280;11581;51.250;6.778;2023-02-12T11:30:17;103474.97;;;16.24;50.41
22830;BME280;11581;51.250;6.778;2023-02-12T11:32:44;103400.09;;;15.84;51.48
22830;BME280;11581;51.250;6.778;2023-02-12T11:35:15;103480.13;;;16.27;51.23
22830;BME280;11581;51.250;6.778;2023-02-12T11:37:48;103482.69;;;16.29;51.11
22830;BME280;11581;51.250;6.778;2023-02-12T11:40:19;103473.03;;;16.26;50.51
22830;BME280;11581;51.250;6.778;2023-02-12T11:42:49;103460.63;;;16.13;50.72
22830;BME280;11581;51.250;6.778;2023-02-12T11:45:20;103475.84;;;16.25;50.78
22830;BME280;11581;51.250;6.778;2023-02-12T11:47:49;103476.69;;;16.25;51.20
22830;BME280;11581;51.250;6.778;2023-02-12T11:50:23;103464.78;;;16.17;50.19
22830;BME280;11581;51.250;6.778;2023-02-12T11:52:54;103467.00;;;16.23;50.58
22830;BME280;11581;51.250;6.778;2023-02-12T11:55:24;103372.44;;;15.71;50.47
22830;BME280;11581;51.250;6.778;2023-02-12T11:57:54;103470.22;;;16.39;50.82
22830;BME280;11581;51.250;6.778;2023-02-12T12:00:31;103441.81;;;16.24;50.14
22830;BME280;11581;51.250;6.778;2023-02-12T12:03:01;103476.63;;;16.49;50.11
22830;BME280;11581;51.250;6.778;2023-02-12T12:05:35;103478.13;;;16.53;49.46
22830;BME280;11581;51.250;6.778;2023-02-12T12:08:09;103466.97;;;16.57;49.44
22830;BME280;11581;51.250;6.778;2023-02-12T12:10:40;103455.59;;;16.54;49.06
22830;BME280;11581;51.250;6.778;2023-02-12T12:13:26;103462.19;;;16.61;48.52
22830;BME280;11581;51.250;6.778;2023-02-12T12:16:03;103428.22;;;16.36;48.51
22830;BME280;11581;51.250;6.778;2023-02-12T12:18:55;103464.75;;;16.62;48.97
22830;BME280;11581;51.250;6.778;2023-02-12T12:21:44;103456.81;;;16.61;48.53
22830;BME280;11581;51.250;6.778;2023-02-12T12:24:16;103431.06;;;16.46;48.17
22830;BME280;11581;51.250;6.778;2023-02-12T12:26:49;103444.94;;;16.52;48.12
22830;BME280;11581;51.250;6.778;2023-02-12T12:29:28;103448.22;;;16.45;48.43
22830;BME280;11581;51.250;6.778;2023-02-12T12:32:02;103436.44;;;16.35;48.05
22830;BME280;11581;51.250;6.778;2023-02-12T12:34:30;103392.69;;;15.98;48.85
22830;BME280;11581;51.250;6.778;2023-02-12T12:37:16;103340.59;;;15.64;47.92
22830;BME280;11581;51.250;6.778;2023-02-12T12:40:25;103402.44;;;15.88;48.03
22830;BME280;11581;51.250;6.778;2023-02-12T12:43:09;103429.75;;;15.95;48.70
22830;BME280;11581;51.250;6.778;2023-02-12T12:48:59;103429.09;;;15.80;49.14
22830;BME280;11581;51.250;6.778;2023-02-12T12:51:55;103431.03;;;15.78;49.06
22830;BME280;11581;51.250;6.778;2023-02-12T12:54:34;103448.28;;;15.76;49.38
22830;BME280;11581;51.250;6.778;2023-02-12T12:57:13;103418.69;;;15.76;50.08
22830;BME280;11581;51.250;6.778;2023-02-12T13:03:04;103418.22;;;15.82;49.40
22830;BME280;11581;51.250;6.778;2023-02-12T13:08:54;103381.63;;;15.79;50.05
22830;BME280;11581;51.250;6.778;2023-02-12T13:11:38;103394.25;;;15.90;49.63
22830;BME280;11581;51.250;6.778;2023-02-12T13:14:18;103390.44;;;15.92;49.32
22830;BME280;11581;51.250;6.778;2023-02-12T13:16:51;103389.50;;;15.93;49.97
22830;BME280;11581;51.250;6.778;2023-02-12T13:19:34;103387.75;;;15.92;49.92
22830;BME280;11581;51.250;6.778;2023-02-12T13:22:09;103384.13;;;15.93;49.92
22830;BME280;11581;51.250;6.778;2023-02-12T13:24:43;103362.44;;;15.84;50.41
22830;BME280;11581;51.250;6.778;2023-02-12T13:27:13;103388.16;;;15.99;49.99